Terminal Aerodrome Forecast
Issued by NWS Jacksonville, FL

Home | Current Version | Previous Version | Text Only | Print | Product List | Glossary On
Versions: 1 2 3 4 5 6 7 8 9 10 11 12 13
000
FTUS42 KJAX 160500
TAFJAX
TAF
KJAX 160521Z 1606/1706 VRB03KT P6SM SCT100 BKN200
     FM161000 00000KT P6SM SCT010 BKN150
     FM161500 28006KT P6SM VCSH SCT030 BKN100
     FM161800 27007KT P6SM -SHRA VCTS SCT025CB BKN040 PROB30
      1620/1624 VRB15G25KT 2SM TSRA BKN025CB
     FM170200 25004KT P6SM VCSH SCT040 BKN100=

USA.gov is the U.S. government's official web portal to all federal, state and local government web resources and services.